Portales de las Piedras, Puerto Rico
Current Conditions -  °F | °C
As of 3:53 AM on Thursday 27 Nov 2014 (Local Time) from TJNR Reporting Station
Clear Clear  
Wind Chill: 79°   Ceiling: Unl
Heat Index: 81°   Visibility: 10mi
Dew Point: 66°   Wind: 12mph
Humidity: 64%   Direction: 80°E
Pressure: 29.99"   Gusts: 20mph
Location:  18.1853°N, 65.8667°W
Report Text: TJNR 270753Z AUTO 08010G17KT 10SM CLR 26/19 A2999 RMK AO2 SLP155 T02610189 $
Loading
Personal Weather Stations






























Interactive Weather Map New forecast layout! Learn more

10-Day Weather Forecast

Advertisements
Track Severe Weather on mobile